Time;durP1;ratioP1;P1;durP2;ratioP2;P2;SDS_P1;SDS_P2;PMS_P1;PMS_P2;Temp;Humidity;BMP_temperature;BMP_pressure;BME280_temperature;BME280_humidity;BME280_pressure;Samples;Min_cycle;Max_cycle;Signal;HPM_P1;HPM_P2
2023/05/25 00:08:39;;;;;;;12.90;5.80;;;;;;;7.55;63.81;101424.56;20087712;29;20198;-79
2023/05/25 00:18:42;;;;;;;11.53;5.13;;;;;;;7.21;66.47;101424.59;20111971;29;20222;-79
2023/05/25 00:28:44;;;;;;;10.70;5.97;;;;;;;7.28;65.92;101413.03;20099243;29;20323;-78
2023/05/25 00:38:46;;;;;;;15.13;6.03;;;;;;;7.27;66.12;101414.97;20111679;29;20235;-78
2023/05/25 00:48:51;;;;;;;14.67;6.30;;;;;;;7.24;66.00;101409.94;20078879;29;20195;-79
2023/05/25 00:58:55;;;;;;;12.33;5.77;;;;;;;6.76;66.65;101416.50;20080282;29;20252;-78
2023/05/25 01:09:00;;;;;;;12.70;5.17;;;;;;;6.55;66.13;101433.47;20090471;29;20227;-78
2023/05/25 01:19:03;;;;;;;15.47;6.00;;;;;;;6.40;67.07;101425.09;20092523;29;20230;-78
2023/05/25 01:29:07;;;;;;;14.67;5.83;;;;;;;6.31;66.49;101422.06;20099055;29;20461;-78
2023/05/25 01:39:10;;;;;;;8.93;5.40;;;;;;;5.80;68.30;101418.56;20095461;29;20214;-79
2023/05/25 01:49:18;;;;;;;10.00;6.33;;;;;;;5.96;67.86;101442.63;20100374;29;20202;-78
2023/05/25 01:59:20;;;;;;;13.20;5.80;;;;;;;6.37;67.67;101440.53;20064381;29;20699;-79
2023/05/25 02:09:25;;;;;;;13.97;6.03;;;;;;;6.41;67.86;101429.56;20075494;29;20210;-78
2023/05/25 02:19:28;;;;;;;11.07;6.17;;;;;;;5.67;68.86;101433.16;20113691;29;20222;-79
2023/05/25 02:29:31;;;;;;;12.53;5.90;;;;;;;5.95;67.68;101435.34;20096982;29;20210;-79
2023/05/25 02:39:34;;;;;;;10.47;5.33;;;;;;;5.70;67.76;101438.19;20107775;29;20282;-79
2023/05/25 02:49:37;;;;;;;14.27;5.93;;;;;;;5.66;68.36;101453.91;20104723;29;20207;-79
2023/05/25 02:59:40;;;;;;;8.70;6.90;;;;;;;5.63;68.73;101454.47;20116151;29;20233;-79
2023/05/25 03:09:43;;;;;;;18.57;7.27;;;;;;;5.27;70.06;101454.47;20103736;29;20675;-79
2023/05/25 03:19:45;;;;;;;11.63;6.27;;;;;;;5.38;68.96;101468.44;20098000;29;20222;-79
2023/05/25 03:29:49;;;;;;;16.20;6.87;;;;;;;5.46;68.90;101451.09;20097042;29;20194;-79
2023/05/25 03:39:51;;;;;;;15.03;7.17;;;;;;;5.38;69.39;101469.28;20097956;29;20270;-79
2023/05/25 03:49:54;;;;;;;11.90;7.03;;;;;;;5.32;69.21;101481.59;20085896;29;20187;-79
2023/05/25 03:59:56;;;;;;;11.47;6.20;;;;;;;5.34;68.74;101495.31;20095444;29;20231;-78
2023/05/25 04:09:58;;;;;;;13.07;7.30;;;;;;;5.57;68.43;101500.41;20079715;29;20206;-79
2023/05/25 04:20:02;;;;;;;15.83;8.20;;;;;;;5.70;68.92;101507.38;20081290;29;20290;-79
2023/05/25 04:30:05;;;;;;;24.23;8.10;;;;;;;6.10;67.46;101515.75;20078705;29;20263;-79
2023/05/25 04:40:36;;;;;;;13.37;7.17;;;;;;;6.40;67.02;101528.88;20109429;29;20278;-78
2023/05/25 04:50:39;;;;;;;11.97;7.13;;;;;;;5.75;70.17;101524.22;20096189;29;20198;-79
2023/05/25 05:00:42;;;;;;;12.47;7.43;;;;;;;6.01;69.16;101534.28;20081022;29;20242;-79
2023/05/25 05:10:45;;;;;;;17.70;7.93;;;;;;;6.80;66.76;101538.28;20087019;29;20198;-79
2023/05/25 05:20:47;;;;;;;13.67;8.13;;;;;;;7.02;66.46;101558.38;20077264;29;20222;-80
2023/05/25 05:30:52;;;;;;;14.63;7.87;;;;;;;7.30;65.52;101574.50;20078913;29;20198;-79
2023/05/25 05:40:54;;;;;;;18.60;8.10;;;;;;;7.30;66.08;101591.38;20072485;29;20218;-79
2023/05/25 05:50:57;;;;;;;17.00;8.33;;;;;;;7.43;65.17;101596.34;20093571;29;20246;-79
2023/05/25 06:01:00;;;;;;;14.60;8.73;;;;;;;7.68;64.78;101598.16;20095091;29;20532;-79
2023/05/25 06:11:03;;;;;;;19.33;10.50;;;;;;;7.35;66.55;101604.56;20074942;29;20202;-79
2023/05/25 06:21:05;;;;;;;15.73;8.17;;;;;;;7.57;64.91;101606.94;20058824;29;20719;-78
2023/05/25 06:31:07;;;;;;;14.10;7.20;;;;;;;7.54;64.38;101608.34;20024570;29;20203;-78
2023/05/25 06:41:13;;;;;;;15.80;7.30;;;;;;;7.92;63.61;101609.50;20113693;29;20222;-78
2023/05/25 06:51:17;;;;;;;15.37;7.27;;;;;;;8.69;61.05;101618.91;20071235;29;20202;-78
2023/05/25 07:01:20;;;;;;;15.73;7.33;;;;;;;8.30;62.81;101630.28;20099759;29;20264;-77
2023/05/25 07:11:22;;;;;;;12.67;5.30;;;;;;;8.87;59.78;101619.28;20108013;29;20199;-78
2023/05/25 07:21:24;;;;;;;10.03;5.20;;;;;;;9.04;57.70;101630.94;20089387;29;20581;-77
2023/05/25 07:31:26;;;;;;;9.87;4.67;;;;;;;8.52;60.80;101628.94;20105174;29;20247;-78
2023/05/25 07:41:29;;;;;;;11.40;4.73;;;;;;;9.04;55.81;101636.56;20132187;29;20222;-78
2023/05/25 07:51:31;;;;;;;8.77;5.23;;;;;;;8.66;59.09;101644.84;20162947;29;20487;-78
2023/05/25 08:01:34;;;;;;;12.10;5.13;;;;;;;9.51;56.03;101642.13;20096908;29;20665;-77
2023/05/25 08:11:38;;;;;;;16.10;4.80;;;;;;;9.85;54.38;101641.06;20123040;29;20273;-78
2023/05/25 08:21:41;;;;;;;10.20;7.00;;;;;;;9.39;55.85;101649.34;20150036;29;20252;-77
2023/05/25 08:31:48;;;;;;;12.37;8.30;;;;;;;10.11;52.69;101644.31;20144516;29;20261;-78
2023/05/25 08:41:51;;;;;;;15.70;10.17;;;;;;;9.85;53.17;101669.28;20078154;29;20230;-78
2023/05/25 08:51:54;;;;;;;13.50;10.10;;;;;;;9.03;55.65;101672.34;20107882;29;20202;-78
2023/05/25 09:02:21;;;;;;;11.40;6.67;;;;;;;9.77;53.40;101673.63;20085662;29;20270;-78
2023/05/25 09:12:24;;;;;;;8.63;5.37;;;;;;;9.24;55.08;101684.19;20087521;29;20418;-78
2023/05/25 09:22:27;;;;;;;8.90;5.77;;;;;;;9.75;53.64;101686.34;20087733;29;20243;-77
2023/05/25 09:32:29;;;;;;;10.57;5.47;;;;;;;9.35;53.78;101694.19;20088469;29;20279;-77
2023/05/25 09:42:36;;;;;;;9.43;5.60;;;;;;;9.55;53.21;101696.75;20081789;29;20183;-77
2023/05/25 09:52:38;;;;;;;9.53;5.40;;;;;;;9.85;53.01;101703.13;20080950;29;20306;-80
2023/05/25 10:02:40;;;;;;;12.63;7.07;;;;;;;9.52;54.35;101717.09;20088700;29;20239;-78
2023/05/25 10:12:43;;;;;;;9.47;6.20;;;;;;;9.82;52.14;101713.06;20101278;29;20221;-77
2023/05/25 10:23:04;;;;;;;14.10;7.77;;;;;;;9.75;53.56;101717.38;20107976;29;20287;-77
2023/05/25 10:33:06;;;;;;;10.67;6.03;;;;;;;10.56;52.06;101718.97;20105019;29;20225;-77
2023/05/25 10:43:09;;;;;;;9.00;5.53;;;;;;;10.82;49.84;101717.38;20110156;29;20207;-77
2023/05/25 10:53:12;;;;;;;9.13;5.30;;;;;;;10.25;52.18;101712.94;20105302;29;20289;-77
2023/05/25 11:03:14;;;;;;;8.10;5.73;;;;;;;10.90;49.48;101702.50;20088447;29;20259;-77
2023/05/25 11:13:20;;;;;;;9.13;4.83;;;;;;;11.31;48.91;101698.88;20041072;29;20231;-76
2023/05/25 11:23:22;;;;;;;11.20;5.93;;;;;;;11.81;48.48;101698.94;20037316;29;20317;-76
2023/05/25 11:33:25;;;;;;;8.23;6.00;;;;;;;11.30;50.13;101688.72;20071568;29;20286;-77
2023/05/25 11:43:28;;;;;;;8.53;5.73;;;;;;;10.61;51.39;101676.50;20032791;29;20199;-77
2023/05/25 11:53:30;;;;;;;11.60;6.27;;;;;;;11.01;51.32;101674.91;20087697;29;20239;-76
2023/05/25 12:03:34;;;;;;;12.40;6.53;;;;;;;11.11;50.34;101671.03;19991165;29;20288;-77
2023/05/25 12:13:39;;;;;;;10.50;5.93;;;;;;;11.56;49.20;101658.78;20042513;29;20717;-77
2023/05/25 12:23:42;;;;;;;13.70;6.17;;;;;;;12.09;49.01;101651.59;20040035;29;20203;-78
2023/05/25 12:33:44;;;;;;;10.67;6.00;;;;;;;11.78;49.16;101654.31;20058531;29;20219;-76
2023/05/25 12:43:48;;;;;;;8.43;5.43;;;;;;;12.38;47.10;101641.53;20041289;29;20198;-77
2023/05/25 12:53:50;;;;;;;8.23;4.25;;;;;;;11.88;46.78;101646.44;20036347;29;20275;-77
2023/05/25 13:03:53;;;;;;;8.85;5.35;;;;;;;11.80;48.91;101641.53;20035911;29;20231;-77
2023/05/25 13:13:55;;;;;;;11.93;5.27;;;;;;;11.69;49.57;101657.91;20010108;29;20215;-77
2023/05/25 13:23:57;;;;;;;8.60;5.20;;;;;;;11.98;48.03;101643.38;20035061;29;20690;-77
2023/05/25 13:34:00;;;;;;;7.87;4.63;;;;;;;11.68;48.30;101630.78;20033352;29;20624;-79
2023/05/25 13:44:02;;;;;;;6.93;4.03;;;;;;;12.94;43.81;101620.13;20036576;29;20195;-76
2023/05/25 13:54:04;;;;;;;8.33;4.63;;;;;;;13.30;44.03;101616.31;20028125;29;20286;-77
2023/05/25 14:04:08;;;;;;;11.33;5.20;;;;;;;13.76;41.63;101602.34;20092973;29;20235;-76
2023/05/25 14:14:11;;;;;;;7.07;4.25;;;;;;;12.81;44.05;101603.28;20079305;29;20290;-77
2023/05/25 14:24:32;;;;;;;9.80;4.50;;;;;;;13.54;42.27;101582.63;20146595;29;20195;-75
2023/05/25 14:34:34;;;;;;;7.55;3.80;;;;;;;13.84;40.59;101588.53;20124774;29;20210;-77
2023/05/25 14:44:36;;;;;;;7.55;4.07;;;;;;;13.14;43.25;101578.22;20106638;29;20194;-77
2023/05/25 14:54:43;;;;;;;8.60;3.67;;;;;;;13.16;42.52;101584.41;20097146;29;20286;-77
2023/05/25 15:04:46;;;;;;;5.45;3.05;;;;;;;12.82;43.89;101579.41;20109017;29;20198;-77
2023/05/25 15:14:48;;;;;;;8.40;3.92;;;;;;;13.05;44.14;101573.38;20108653;29;20271;-78
2023/05/25 15:24:50;;;;;;;6.75;3.42;;;;;;;13.21;44.37;101562.38;20127561;29;20223;-78
2023/05/25 15:34:53;;;;;;;9.90;3.80;;;;;;;13.71;43.21;101564.78;20121281;29;20247;-78
2023/05/25 15:44:55;;;;;;;7.50;3.63;;;;;;;12.23;44.36;101556.97;20125805;29;20198;-78
2023/05/25 15:54:57;;;;;;;11.10;3.72;;;;;;;13.35;42.48;101550.88;20088838;29;20235;-77
2023/05/25 16:04:59;;;;;;;6.75;3.40;;;;;;;13.96;41.36;101532.72;20103336;29;20207;-78
2023/05/25 16:15:02;;;;;;;6.35;3.50;;;;;;;13.38;42.73;101538.88;20104720;29;20254;-78
2023/05/25 16:25:04;;;;;;;9.23;3.80;;;;;;;12.91;44.57;101549.97;20129740;29;20259;-78
2023/05/25 16:35:07;;;;;;;7.63;3.30;;;;;;;13.66;40.81;101526.03;20098722;29;20222;-77
2023/05/25 16:45:09;;;;;;;7.43;3.97;;;;;;;13.41;42.34;101538.22;20115247;29;20198;-77
2023/05/25 16:55:13;;;;;;;8.70;4.13;;;;;;;13.03;45.00;101536.00;20095022;29;20322;-77
2023/05/25 17:05:15;;;;;;;11.20;3.92;;;;;;;13.37;43.94;101540.06;20112640;29;20203;-78
2023/05/25 17:15:17;;;;;;;9.48;3.67;;;;;;;13.37;43.71;101540.06;20078269;29;20222;-78
2023/05/25 17:25:20;;;;;;;10.13;3.77;;;;;;;13.45;43.43;101525.06;20113315;29;20227;-77
2023/05/25 17:35:22;;;;;;;10.20;3.92;;;;;;;13.06;44.68;101532.53;20105583;29;20585;-78
2023/05/25 17:45:24;;;;;;;8.77;3.80;;;;;;;13.18;44.48;101523.38;20110998;29;20206;-78
2023/05/25 17:55:27;;;;;;;9.02;3.65;;;;;;;13.00;43.94;101533.84;20098635;29;20233;-78
2023/05/25 18:05:29;;;;;;;8.32;2.70;;;;;;;13.45;43.16;101528.72;20091538;29;20191;-76
2023/05/25 18:15:31;;;;;;;6.33;2.70;;;;;;;12.82;45.53;101526.41;20087059;29;20597;-75
2023/05/25 18:25:33;;;;;;;8.00;3.50;;;;;;;12.73;46.10;101536.88;20106764;29;20202;-77
2023/05/25 18:35:36;;;;;;;7.50;3.40;;;;;;;12.29;46.87;101541.50;20107974;29;20214;-78
2023/05/25 18:45:38;;;;;;;10.10;3.23;;;;;;;11.94;48.20;101537.63;20105916;29;20500;-76
2023/05/25 18:55:41;;;;;;;13.82;3.38;;;;;;;12.22;47.05;101534.66;20073911;29;20532;-79
2023/05/25 19:05:43;;;;;;;8.17;3.73;;;;;;;11.33;49.40;101550.41;20119182;29;20203;-79
2023/05/25 19:15:45;;;;;;;10.50;3.73;;;;;;;11.72;48.42;101548.94;20100347;29;20306;-79
2023/05/25 19:25:48;;;;;;;9.30;4.83;;;;;;;11.28;50.69;101549.69;20102493;29;20256;-79
2023/05/25 19:35:50;;;;;;;7.63;4.03;;;;;;;10.94;51.54;101559.47;20142430;23;20790;-77
2023/05/25 19:45:54;;;;;;;6.60;3.87;;;;;;;10.99;53.43;101570.66;20232024;23;20232;-77
2023/05/25 19:55:56;;;;;;;9.13;4.13;;;;;;;10.69;53.19;101582.59;20249329;29;20249;-76
2023/05/25 20:05:58;;;;;;;11.57;4.90;;;;;;;10.56;54.37;101586.25;20204172;29;20341;-76
2023/05/25 20:16:00;;;;;;;11.43;5.20;;;;;;;10.21;54.97;101577.25;20205434;29;20265;-76
2023/05/25 20:26:02;;;;;;;9.13;4.97;;;;;;;10.30;55.33;101582.19;20237112;29;20210;-77
2023/05/25 20:36:05;;;;;;;7.93;4.73;;;;;;;9.97;56.42;101587.84;20230981;29;20226;-78
2023/05/25 20:46:07;;;;;;;9.37;4.97;;;;;;;10.35;55.53;101590.56;20221686;29;20230;-77
2023/05/25 20:56:09;;;;;;;10.30;5.00;;;;;;;10.04;57.10;101613.69;20278689;29;20245;-77
2023/05/25 21:06:12;;;;;;;10.67;5.70;;;;;;;9.55;58.99;101617.81;20277808;29;20201;-77
2023/05/25 21:16:14;;;;;;;21.17;6.17;;;;;;;8.92;60.05;101616.41;20277145;29;20275;-77
2023/05/25 21:26:16;;;;;;;15.53;4.63;;;;;;;10.01;53.23;101628.41;20274478;29;20197;-78
2023/05/25 21:36:19;;;;;;;16.87;4.77;;;;;;;9.62;54.41;101636.34;20271033;29;20225;-76
2023/05/25 21:46:21;;;;;;;16.80;5.27;;;;;;;9.05;54.37;101643.84;20268774;29;20225;-77
2023/05/25 21:56:23;;;;;;;20.70;5.80;;;;;;;8.97;55.46;101669.88;20268946;29;20280;-77
2023/05/25 22:06:25;;;;;;;17.83;4.57;;;;;;;8.54;56.87;101666.91;20281580;29;20197;-77
2023/05/25 22:16:27;;;;;;;22.20;4.40;;;;;;;8.87;55.67;101675.63;20283379;29;20261;-77
2023/05/25 22:26:29;;;;;;;19.63;5.60;;;;;;;8.49;56.73;101681.03;20279382;29;20257;-77
2023/05/25 22:36:32;;;;;;;17.93;5.40;;;;;;;8.29;57.23;101686.84;20283086;29;20248;-76
2023/05/25 22:46:34;;;;;;;20.03;4.27;;;;;;;8.66;55.63;101684.25;20275263;29;20237;-76
2023/05/25 22:56:36;;;;;;;15.93;4.90;;;;;;;8.06;57.48;101706.13;20295148;29;20273;-77
2023/05/25 23:06:38;;;;;;;19.87;5.67;;;;;;;8.15;57.30;101714.78;20292479;29;20201;-77
2023/05/25 23:16:41;;;;;;;18.57;5.20;;;;;;;8.31;55.68;101713.53;20268086;29;20537;-77
2023/05/25 23:26:43;;;;;;;23.73;4.90;;;;;;;7.71;59.16;101723.25;20275776;29;20201;-78
2023/05/25 23:36:45;;;;;;;18.87;5.17;;;;;;;7.68;58.33;101723.81;20263424;29;20266;-78
2023/05/25 23:46:47;;;;;;;20.37;4.97;;;;;;;7.92;57.21;101726.75;20276976;29;20230;-78
2023/05/25 23:56:50;;;;;;;19.50;4.13;;;;;;;7.48;59.76;101726.69;20293823;29;20450;-77
